createdAt,value
2023-08-15T00:01:15.028Z,100587.78
2023-08-15T00:04:17.315Z,100591.19
2023-08-15T00:07:20.605Z,100603.25
2023-08-15T00:10:24.396Z,100601.28
2023-08-15T00:13:26.959Z,100594.84
2023-08-15T00:16:29.177Z,100585.84
2023-08-15T00:19:31.373Z,100595.66
2023-08-15T00:22:33.559Z,100587.78
2023-08-15T00:25:35.801Z,100598.19
2023-08-15T00:28:37.949Z,100588.69
2023-08-15T00:31:40.780Z,100579.72
2023-08-15T00:34:43.034Z,100587.53
2023-08-15T00:37:45.276Z,100586.88
2023-08-15T00:40:47.495Z,100579.16
2023-08-15T00:43:49.724Z,100593.00
2023-08-15T00:46:51.989Z,100576.69
2023-08-15T00:49:54.400Z,100585.38
2023-08-15T00:52:56.667Z,100581.56
2023-08-15T00:56:00.584Z,100583.41
2023-08-15T00:59:03.315Z,100586.63
2023-08-15T01:02:05.881Z,100589.38
2023-08-15T01:05:08.825Z,100581.81
2023-08-15T01:08:11.094Z,100583.78
2023-08-15T01:11:13.876Z,100573.56
2023-08-15T01:14:18.398Z,100586.91
2023-08-15T01:17:30.047Z,100588.03
2023-08-15T01:20:35.099Z,100580.94
2023-08-15T01:23:40.287Z,100585.47
2023-08-15T01:26:42.509Z,100588.22
2023-08-15T01:29:44.740Z,100589.50
2023-08-15T01:33:03.802Z,100593.78
2023-08-15T01:36:21.156Z,100591.84
2023-08-15T01:39:28.292Z,100586.72
2023-08-15T01:42:31.194Z,100579.03
2023-08-15T01:45:34.119Z,100595.09
2023-08-15T01:48:41.460Z,100593.09
2023-08-15T01:51:43.771Z,100589.25
2023-08-15T01:54:46.005Z,100584.19
2023-08-15T01:57:48.149Z,100588.31
2023-08-15T02:00:50.917Z,100593.41
2023-08-15T02:03:53.164Z,100593.59
2023-08-15T02:06:55.398Z,100593.59
2023-08-15T02:09:57.612Z,100592.69
2023-08-15T02:12:59.816Z,100593.41
2023-08-15T02:16:02.513Z,100582.88
2023-08-15T02:19:04.765Z,100590.97
2023-08-15T02:22:07.011Z,100589.84
2023-08-15T02:25:09.401Z,100593.09
2023-08-15T02:28:11.596Z,100593.69
2023-08-15T02:31:13.923Z,100573.06
2023-08-15T02:34:19.543Z,100583.50
2023-08-15T02:37:22.083Z,100576.72
2023-08-15T02:40:28.224Z,100584.91
2023-08-15T02:43:30.409Z,100577.66
2023-08-15T02:46:35.244Z,100581.41
2023-08-15T02:49:37.561Z,100584.66
2023-08-15T02:52:39.786Z,100585.13
2023-08-15T02:55:42.015Z,100591.59
2023-08-15T02:58:44.258Z,100572.63
2023-08-15T03:01:48.166Z,100586.84
2023-08-15T03:04:50.545Z,100593.22
2023-08-15T03:07:52.793Z,100594.78
2023-08-15T03:10:55.032Z,100591.81
2023-08-15T03:13:59.327Z,100601.78
2023-08-15T03:17:03.452Z,100580.66
2023-08-15T03:20:07.276Z,100588.22
2023-08-15T03:23:10.012Z,100583.59
2023-08-15T03:26:13.231Z,100592.47
2023-08-15T03:29:15.988Z,100582.19
2023-08-15T03:32:18.209Z,100571.66
2023-08-15T03:35:22.723Z,100579.03
2023-08-15T03:38:25.452Z,100581.97
2023-08-15T03:41:28.162Z,100582.94
2023-08-15T03:44:30.346Z,100572.88
2023-08-15T03:47:32.574Z,100581.06
2023-08-15T03:50:36.171Z,100588.34
2023-08-15T03:53:38.442Z,100587.44
2023-08-15T03:56:40.795Z,100591.84
2023-08-15T03:59:43.020Z,100599.69
2023-08-15T04:02:45.901Z,100586.59
2023-08-15T04:05:48.358Z,100584.91
2023-08-15T04:08:50.596Z,100598.34
2023-08-15T04:11:52.889Z,100609.06
2023-08-15T04:14:55.152Z,100597.44
2023-08-15T04:17:57.477Z,100591.44
2023-08-15T04:21:01.410Z,100597.53
2023-08-15T04:24:04.060Z,100603.94
2023-08-15T04:27:07.708Z,100591.41
2023-08-15T04:30:10.552Z,100599.25
2023-08-15T04:33:12.763Z,100605.22
2023-08-15T04:36:15.961Z,100605.03
2023-08-15T04:39:22.610Z,100598.00
2023-08-15T04:42:24.996Z,100610.00
2023-08-15T04:45:27.737Z,100629.69
2023-08-15T04:48:29.940Z,100606.47
2023-08-15T04:51:32.146Z,100615.69
2023-08-15T04:54:34.397Z,100617.31
2023-08-15T04:57:36.597Z,100620.66
2023-08-15T05:00:38.821Z,100620.47
2023-08-15T05:03:41.589Z,100613.97
2023-08-15T05:06:43.749Z,100619.09
2023-08-15T05:09:46.037Z,100618.81
2023-08-15T05:12:48.217Z,100621.59
2023-08-15T05:15:50.505Z,100615.59
2023-08-15T05:18:52.780Z,100616.88
2023-08-15T05:21:57.004Z,100605.13
2023-08-15T05:25:00.579Z,100610.16
2023-08-15T05:28:05.541Z,100629.47
2023-08-15T05:31:07.783Z,100621.22
2023-08-15T05:34:11.363Z,100623.84
2023-08-15T05:37:13.834Z,100632.38
2023-08-15T05:40:16.581Z,100631.28
2023-08-15T05:43:18.797Z,100626.44
2023-08-15T05:46:20.983Z,100628.09
2023-08-15T05:49:23.170Z,100629.38
2023-08-15T05:52:27.109Z,100627.47
2023-08-15T05:55:29.278Z,100625.84
2023-08-15T05:58:31.564Z,100631.16
2023-08-15T06:01:33.867Z,100630.53
2023-08-15T06:04:36.191Z,100627.97
2023-08-15T06:07:38.544Z,100623.28
2023-08-15T06:10:40.780Z,100625.91
2023-08-15T06:13:42.954Z,100630.63
2023-08-15T06:16:45.166Z,100626.25
2023-08-15T06:19:47.579Z,100618.34
2023-08-15T06:22:49.829Z,100626.41
2023-08-15T06:25:52.074Z,100606.06
2023-08-15T06:28:54.224Z,100614.50
2023-08-15T06:31:59.107Z,100621.25
2023-08-15T06:35:02.240Z,100622.06
2023-08-15T06:38:04.651Z,100614.78
2023-08-15T06:41:07.945Z,100617.25
2023-08-15T06:44:10.229Z,100616.25
2023-08-15T06:47:12.581Z,100619.63
2023-08-15T06:50:14.724Z,100627.22
2023-08-15T06:53:16.981Z,100617.38
2023-08-15T06:56:19.344Z,100610.28
2023-08-15T06:59:24.627Z,100624.28
2023-08-15T07:02:26.947Z,100620.59
2023-08-15T07:05:29.200Z,100612.84
2023-08-15T07:08:32.215Z,100612.00
2023-08-15T07:11:37.171Z,100620.38
2023-08-15T07:14:39.374Z,100609.22
2023-08-15T07:17:41.620Z,100616.47
2023-08-15T07:20:45.740Z,100611.47
2023-08-15T07:23:47.948Z,100596.25
2023-08-15T07:26:50.150Z,100611.25
2023-08-15T07:29:52.361Z,100613.34
2023-08-15T07:32:56.246Z,100610.56
2023-08-15T07:35:58.578Z,100607.28
2023-08-15T07:39:00.792Z,100610.03
2023-08-15T07:42:03.175Z,100605.34
2023-08-15T07:45:06.173Z,100609.06
2023-08-15T07:48:08.381Z,100616.25
2023-08-15T07:51:11.859Z,100606.34
2023-08-15T07:54:14.627Z,100601.66
2023-08-15T07:57:16.843Z,100608.38
2023-08-15T08:00:19.247Z,100601.41
2023-08-15T08:03:21.537Z,100602.38
2023-08-15T08:06:39.088Z,100594.59
2023-08-15T08:09:42.408Z,100597.63
2023-08-15T08:12:46.855Z,100596.28
2023-08-15T08:15:49.420Z,100597.88
2023-08-15T08:18:51.660Z,100595.47
2023-08-15T08:21:54.561Z,100600.56
2023-08-15T08:24:56.734Z,100598.75
2023-08-15T08:27:58.905Z,100587.53
2023-08-15T08:31:01.086Z,100590.75
2023-08-15T08:34:03.288Z,100590.22
2023-08-15T08:37:05.447Z,100586.31
2023-08-15T08:40:09.303Z,100592.56
2023-08-15T08:43:12.294Z,100582.22
2023-08-15T08:46:15.025Z,100598.34
2023-08-15T08:49:18.038Z,100596.06
2023-08-15T08:52:20.240Z,100597.00
2023-08-15T08:55:23.533Z,100580.97
2023-08-15T08:58:27.381Z,100584.66
2023-08-15T09:01:31.047Z,100573.19
2023-08-15T09:04:33.235Z,100581.78
2023-08-15T09:07:36.397Z,100587.75
2023-08-15T09:10:38.707Z,100583.66
2023-08-15T09:13:53.834Z,100570.13
2023-08-15T09:16:56.180Z,100571.97
2023-08-15T09:20:08.429Z,100573.78
2023-08-15T09:23:10.623Z,100572.19
2023-08-15T09:26:14.134Z,100566.34
2023-08-15T09:29:17.269Z,100574.84
2023-08-15T09:32:19.522Z,100576.13
2023-08-15T09:35:21.697Z,100574.84
2023-08-15T09:38:23.834Z,100577.38
2023-08-15T09:41:27.955Z,100573.47
2023-08-15T09:44:31.879Z,100577.53
2023-08-15T09:47:35.693Z,100583.16
2023-08-15T09:50:39.246Z,100586.38
2023-08-15T09:53:43.674Z,100575.47
2023-08-15T09:56:47.673Z,100577.91
2023-08-15T09:59:49.861Z,100567.56
2023-08-15T10:03:12.300Z,100570.88
2023-08-15T10:06:14.870Z,100564.13
2023-08-15T10:09:17.746Z,100572.72
2023-08-15T10:12:20.477Z,100566.88
2023-08-15T10:15:23.405Z,100564.13
2023-08-15T10:18:26.329Z,100566.88
2023-08-15T10:21:50.090Z,100581.09
2023-08-15T10:24:52.325Z,100561.25
2023-08-15T10:27:56.707Z,100561.81
2023-08-15T10:30:59.150Z,100568.72
2023-08-15T10:34:03.564Z,100554.03
2023-08-15T10:37:27.997Z,100566.16
2023-08-15T10:40:41.706Z,100548.06
2023-08-15T10:43:52.364Z,100565.94
2023-08-15T10:46:57.411Z,100543.91
2023-08-15T10:49:59.650Z,100553.44
2023-08-15T10:53:08.172Z,100549.19
2023-08-15T10:56:10.658Z,100557.22
2023-08-15T10:59:15.326Z,100543.59
2023-08-15T11:02:17.665Z,100540.47
2023-08-15T11:05:20.489Z,100549.28
2023-08-15T11:08:22.733Z,100535.78
2023-08-15T11:11:25.657Z,100536.22
2023-08-15T11:14:27.824Z,100540.47
2023-08-15T11:17:30.045Z,100546.88
2023-08-15T11:20:32.332Z,100536.31
2023-08-15T11:23:35.350Z,100536.06
2023-08-15T11:26:37.569Z,100533.75
2023-08-15T11:29:40.768Z,100527.88
2023-08-15T11:32:43.242Z,100525.94
2023-08-15T11:35:48.596Z,100522.81
2023-08-15T11:38:50.790Z,100528.56
2023-08-15T11:41:53.588Z,100535.53
2023-08-15T11:45:02.906Z,100533.69
2023-08-15T11:48:05.592Z,100530.22
2023-08-15T11:51:07.881Z,100527.56
2023-08-15T11:54:10.118Z,100521.91
2023-08-15T11:57:12.354Z,100523.59
2023-08-15T12:00:19.476Z,100525.66
2023-08-15T12:03:21.797Z,100518.38
2023-08-15T12:06:24.011Z,100510.19
2023-08-15T12:09:30.713Z,100512.69
2023-08-15T12:12:40.757Z,100506.13
2023-08-15T12:15:43.014Z,100507.47
2023-08-15T12:18:46.327Z,100506.06
2023-08-15T12:21:50.323Z,100491.91
2023-08-15T12:24:52.593Z,100498.69
2023-08-15T12:27:54.791Z,100495.66
2023-08-15T12:30:57.136Z,100494.66
2023-08-15T12:33:59.296Z,100505.09
2023-08-15T12:37:01.537Z,100492.97
2023-08-15T12:40:05.244Z,100495.03
2023-08-15T12:43:11.087Z,100489.59
2023-08-15T12:46:16.003Z,100489.06
2023-08-15T12:49:18.486Z,100495.47
2023-08-15T12:52:21.067Z,100490.84
2023-08-15T12:55:23.752Z,100483.34
2023-08-15T12:58:26.130Z,100483.97
2023-08-15T13:01:28.997Z,100469.66
2023-08-15T13:04:31.346Z,100476.84
2023-08-15T13:07:34.577Z,100474.53
2023-08-15T13:10:36.901Z,100460.56
2023-08-15T13:13:40.191Z,100457.63
2023-08-15T13:16:42.748Z,100443.28
2023-08-15T13:19:44.956Z,100446.84
2023-08-15T13:22:47.151Z,100445.72
2023-08-15T13:25:49.396Z,100449.69
2023-08-15T13:28:51.889Z,100442.41
2023-08-15T13:31:54.362Z,100435.19
2023-08-15T13:34:56.575Z,100432.88
2023-08-15T13:37:59.276Z,100444.16
2023-08-15T13:41:01.562Z,100443.91
2023-08-15T13:44:04.265Z,100439.34
2023-08-15T13:47:06.572Z,100437.19
2023-08-15T13:50:09.900Z,100435.09
2023-08-15T13:53:12.248Z,100441.66
2023-08-15T13:56:17.339Z,100428.78
2023-08-15T13:59:19.537Z,100434.03
2023-08-15T14:02:21.798Z,100432.13
2023-08-15T14:05:24.031Z,100433.88
2023-08-15T14:08:26.464Z,100431.94
2023-08-15T14:11:28.753Z,100429.88
2023-08-15T14:14:30.910Z,100432.19
2023-08-15T14:17:33.092Z,100422.25
2023-08-15T14:20:36.397Z,100419.56
2023-08-15T14:23:41.166Z,100420.56
2023-08-15T14:26:43.397Z,100418.63
2023-08-15T14:29:45.591Z,100416.00
2023-08-15T14:32:48.090Z,100428.19
2023-08-15T14:35:50.307Z,100416.56
2023-08-15T14:38:52.894Z,100423.19
2023-08-15T14:41:55.064Z,100410.97
2023-08-15T14:44:57.305Z,100403.84
2023-08-15T14:47:59.555Z,100384.94
2023-08-15T14:51:01.891Z,100389.09
2023-08-15T14:54:04.369Z,100407.19
2023-08-15T14:57:06.576Z,100406.53
2023-08-15T15:00:10.090Z,100398.22
2023-08-15T15:03:12.688Z,100391.84
2023-08-15T15:06:16.185Z,100397.72
2023-08-15T15:09:18.698Z,100392.00
2023-08-15T15:12:20.850Z,100399.13
2023-08-15T15:15:31.570Z,100395.06
2023-08-15T15:18:43.701Z,100385.47
2023-08-15T15:21:46.000Z,100370.41
2023-08-15T15:24:48.231Z,100381.25
2023-08-15T15:27:50.430Z,100376.75
2023-08-15T15:30:53.616Z,100375.41
2023-08-15T15:33:55.883Z,100358.03
2023-08-15T15:36:58.128Z,100374.63
2023-08-15T15:40:01.681Z,100383.84
2023-08-15T15:43:04.060Z,100370.81
2023-08-15T15:46:06.294Z,100367.59
2023-08-15T15:49:09.482Z,100371.81
2023-08-15T15:52:12.252Z,100357.75
2023-08-15T15:55:15.041Z,100364.66
2023-08-15T15:58:17.297Z,100367.41
2023-08-15T16:01:19.530Z,100376.28
2023-08-15T16:04:24.451Z,100374.50
2023-08-15T16:07:26.692Z,100375.91
2023-08-15T16:10:29.738Z,100380.97
2023-08-15T16:13:31.907Z,100376.97
2023-08-15T16:16:34.098Z,100387.13
2023-08-15T16:19:36.331Z,100385.44
2023-08-15T16:22:38.536Z,100381.34
2023-08-15T16:25:40.732Z,100374.59
2023-08-15T16:28:44.855Z,100371.91
2023-08-15T16:31:47.034Z,100384.72
2023-08-15T16:34:49.224Z,100385.53
2023-08-15T16:37:51.509Z,100387.94
2023-08-15T16:40:53.652Z,100390.31
2023-08-15T16:43:57.428Z,100368.47
2023-08-15T16:46:59.703Z,100381.88
2023-08-15T16:50:01.988Z,100384.28
2023-08-15T16:53:04.888Z,100382.84
2023-08-15T16:56:07.073Z,100386.50
2023-08-15T16:59:09.270Z,100387.84
2023-08-15T17:02:11.562Z,100381.44
2023-08-15T17:05:13.788Z,100370.13
2023-08-15T17:08:16.119Z,100381.59
2023-08-15T17:11:18.772Z,100377.03
2023-08-15T17:14:21.411Z,100377.28
2023-08-15T17:17:23.932Z,100384.47
2023-08-15T17:20:26.218Z,100385.06
2023-08-15T17:23:28.378Z,100381.97
2023-08-15T17:26:30.649Z,100402.84
2023-08-15T17:29:33.131Z,100382.09
2023-08-15T17:32:35.390Z,100374.19
2023-08-15T17:35:37.585Z,100367.69
2023-08-15T17:38:39.800Z,100378.47
2023-08-15T17:41:44.814Z,100376.75
2023-08-15T17:44:48.148Z,100381.16
2023-08-15T17:47:50.320Z,100389.28
2023-08-15T17:50:52.565Z,100391.03
2023-08-15T17:53:54.800Z,100401.25
2023-08-15T17:56:57.078Z,100399.44
2023-08-15T17:59:59.316Z,100402.53
2023-08-15T18:03:01.517Z,100411.34
2023-08-15T18:06:03.739Z,100406.53
2023-08-15T18:09:05.962Z,100408.47
2023-08-15T18:12:08.356Z,100408.69
2023-08-15T18:15:11.535Z,100404.91
2023-08-15T18:18:13.804Z,100405.16
2023-08-15T18:21:16.097Z,100428.91
2023-08-15T18:24:18.501Z,100423.84
2023-08-15T18:27:21.114Z,100427.28
2023-08-15T18:30:23.371Z,100425.47
2023-08-15T18:33:25.564Z,100438.41
2023-08-15T18:36:27.821Z,100443.34
2023-08-15T18:39:29.991Z,100426.09
2023-08-15T18:42:32.320Z,100426.19
2023-08-15T18:45:34.580Z,100438.44
2023-08-15T18:48:37.420Z,100434.44
2023-08-15T18:51:39.624Z,100430.06
2023-08-15T18:54:41.820Z,100409.69
2023-08-15T18:57:44.064Z,100414.81
2023-08-15T19:00:46.280Z,100394.91
2023-08-15T19:03:48.560Z,100403.13
2023-08-15T19:06:51.185Z,100403.94
2023-08-15T19:09:54.443Z,100402.91
2023-08-15T19:12:56.603Z,100408.06
2023-08-15T19:15:58.877Z,100422.16
2023-08-15T19:19:05.046Z,100409.63
2023-08-15T19:22:07.225Z,100430.59
2023-08-15T19:25:09.895Z,100438.13
2023-08-15T19:28:12.129Z,100426.81
2023-08-15T19:31:14.463Z,100453.59
2023-08-15T19:34:18.827Z,100436.91
2023-08-15T19:37:36.116Z,100457.41
2023-08-15T19:40:40.386Z,100459.91
2023-08-15T19:43:42.622Z,100463.66
2023-08-15T19:46:44.994Z,100455.47
2023-08-15T19:49:47.221Z,100461.44
2023-08-15T19:52:49.394Z,100452.00
2023-08-15T19:55:51.692Z,100469.28
2023-08-15T19:58:54.079Z,100468.34
2023-08-15T20:01:56.324Z,100470.91
2023-08-15T20:04:58.491Z,100464.34
2023-08-15T20:08:00.865Z,100482.25
2023-08-15T20:11:03.781Z,100483.81
2023-08-15T20:14:05.996Z,100497.41
2023-08-15T20:17:08.249Z,100487.28
2023-08-15T20:20:11.131Z,100496.81
2023-08-15T20:23:13.440Z,100501.03
2023-08-15T20:26:15.630Z,100507.00
2023-08-15T20:29:17.759Z,100503.47
2023-08-15T20:32:20.046Z,100508.97
2023-08-15T20:35:22.248Z,100492.38
2023-08-15T20:38:24.528Z,100497.19
2023-08-15T20:41:26.744Z,100490.53
2023-08-15T20:44:28.954Z,100493.47
2023-08-15T20:47:31.323Z,100486.53
2023-08-15T20:50:33.529Z,100486.69
2023-08-15T20:53:35.742Z,100500.53
2023-08-15T20:56:37.962Z,100494.72
2023-08-15T20:59:40.198Z,100488.75
2023-08-15T21:02:42.468Z,100484.13
2023-08-15T21:05:45.282Z,100482.84
2023-08-15T21:08:47.582Z,100475.59
2023-08-15T21:11:49.796Z,100486.56
2023-08-15T21:14:52.086Z,100494.34
2023-08-15T21:17:54.309Z,100498.22
2023-08-15T21:20:56.600Z,100499.47
2023-08-15T21:23:58.798Z,100498.22
2023-08-15T21:27:00.977Z,100483.41
2023-08-15T21:30:03.314Z,100494.34
2023-08-15T21:33:05.567Z,100499.34
2023-08-15T21:36:08.034Z,100494.69
2023-08-15T21:39:10.299Z,100502.28
2023-08-15T21:42:12.575Z,100496.53
2023-08-15T21:45:15.474Z,100508.72
2023-08-15T21:48:17.753Z,100514.69
2023-08-15T21:51:19.937Z,100509.69
2023-08-15T21:54:23.363Z,100512.97
2023-08-15T21:57:25.727Z,100516.16
2023-08-15T22:00:28.382Z,100499.75
2023-08-15T22:03:30.789Z,100510.22
2023-08-15T22:06:33.136Z,100518.13
2023-08-15T22:09:35.379Z,100507.66
2023-08-15T22:12:37.948Z,100494.59
2023-08-15T22:15:40.407Z,100501.06
2023-08-15T22:18:42.642Z,100517.84
2023-08-15T22:21:47.065Z,100516.53
2023-08-15T22:24:57.424Z,100510.75
2023-08-15T22:28:07.077Z,100517.56
2023-08-15T22:31:09.795Z,100514.19
2023-08-15T22:34:14.891Z,100512.56
2023-08-15T22:37:17.173Z,100500.16
2023-08-15T22:40:20.095Z,100504.19
2023-08-15T22:43:22.276Z,100492.59
2023-08-15T22:46:24.467Z,100501.78
2023-08-15T22:49:26.643Z,100504.19
2023-08-15T22:52:28.850Z,100509.50
2023-08-15T22:55:34.011Z,100499.66
2023-08-15T22:58:36.259Z,100499.03
2023-08-15T23:01:38.520Z,100491.78
2023-08-15T23:04:40.834Z,100484.25
2023-08-15T23:07:43.096Z,100478.59
2023-08-15T23:10:52.614Z,100486.34
2023-08-15T23:13:54.901Z,100488.28
2023-08-15T23:16:57.067Z,100487.16
2023-08-15T23:19:59.347Z,100481.84
2023-08-15T23:23:01.579Z,100463.63
2023-08-15T23:26:03.920Z,100466.34
2023-08-15T23:29:06.161Z,100472.00
2023-08-15T23:32:08.384Z,100470.72
2023-08-15T23:35:14.598Z,100451.72
2023-08-15T23:38:18.141Z,100465.44
2023-08-15T23:41:20.384Z,100458.97
2023-08-15T23:44:22.626Z,100467.03
2023-08-15T23:47:25.989Z,100459.47
2023-08-15T23:50:28.396Z,100461.25
2023-08-15T23:53:30.599Z,100468.50
2023-08-15T23:56:32.802Z,100466.06
2023-08-15T23:59:35.128Z,100465.72
